createdAt,value
2024-05-09T00:01:49.226Z,15.93
2024-05-09T00:03:51.064Z,15.81
2024-05-09T00:05:52.829Z,15.91
2024-05-09T00:07:54.618Z,15.83
2024-05-09T00:09:56.255Z,15.83
2024-05-09T00:11:58.135Z,15.86
2024-05-09T00:13:59.951Z,15.76
2024-05-09T00:16:29.039Z,15.78
2024-05-09T00:18:31.101Z,15.78
2024-05-09T00:20:38.276Z,15.76
2024-05-09T00:22:42.488Z,15.87
2024-05-09T00:24:44.125Z,15.80
2024-05-09T00:26:45.822Z,15.83
2024-05-09T00:28:47.531Z,15.86
2024-05-09T00:30:49.143Z,15.97
2024-05-09T00:32:51.059Z,15.98
2024-05-09T00:34:53.027Z,15.94
2024-05-09T00:36:54.662Z,15.92
2024-05-09T00:38:56.392Z,15.99
2024-05-09T00:40:58.112Z,15.91
2024-05-09T00:43:10.206Z,15.93
2024-05-09T00:45:12.058Z,15.81
2024-05-09T00:47:13.805Z,15.71
2024-05-09T00:49:15.594Z,15.74
2024-05-09T00:51:17.770Z,15.69
2024-05-09T00:53:19.691Z,15.80
2024-05-09T00:55:21.477Z,15.82
2024-05-09T00:57:24.228Z,15.81
2024-05-09T00:59:26.953Z,15.68
2024-05-09T01:01:30.101Z,15.63
2024-05-09T01:03:31.965Z,15.60
2024-05-09T01:05:35.069Z,15.62
2024-05-09T01:07:37.556Z,15.53
2024-05-09T01:09:39.219Z,15.57
2024-05-09T01:11:41.211Z,15.48
2024-05-09T01:13:44.969Z,15.59
2024-05-09T01:15:48.245Z,15.39
2024-05-09T01:17:50.164Z,15.45
2024-05-09T01:19:52.014Z,15.49
2024-05-09T01:21:53.706Z,15.56
2024-05-09T01:23:55.446Z,15.53
2024-05-09T01:25:57.101Z,15.52
2024-05-09T01:27:59.010Z,15.48
2024-05-09T01:30:00.778Z,15.45
2024-05-09T01:32:04.721Z,15.42
2024-05-09T01:34:06.474Z,15.43
2024-05-09T01:36:08.446Z,15.50
2024-05-09T01:38:12.875Z,15.47
2024-05-09T01:40:18.665Z,15.39
2024-05-09T01:42:26.492Z,15.42
2024-05-09T01:44:28.327Z,15.54
2024-05-09T01:46:30.206Z,15.47
2024-05-09T01:48:37.346Z,15.43
2024-05-09T01:50:41.936Z,15.55
2024-05-09T01:52:44.864Z,15.44
2024-05-09T01:54:46.522Z,15.46
2024-05-09T01:56:48.312Z,15.45
2024-05-09T01:58:49.966Z,15.45
2024-05-09T02:00:51.685Z,15.41
2024-05-09T02:02:53.851Z,15.44
2024-05-09T02:04:55.935Z,15.36
2024-05-09T02:06:57.607Z,15.24
2024-05-09T02:08:59.284Z,15.35
2024-05-09T02:11:01.190Z,15.28
2024-05-09T02:13:07.714Z,15.30
2024-05-09T02:15:09.469Z,15.45
2024-05-09T02:17:11.294Z,15.46
2024-05-09T02:19:13.266Z,15.42
2024-05-09T02:21:15.138Z,15.51
2024-05-09T02:23:17.399Z,15.47
2024-05-09T02:25:20.939Z,15.53
2024-05-09T02:27:22.649Z,15.57
2024-05-09T02:29:24.462Z,15.67
2024-05-09T02:31:26.214Z,15.56
2024-05-09T02:33:28.210Z,15.69
2024-05-09T02:35:30.135Z,15.69
2024-05-09T02:37:31.870Z,15.64
2024-05-09T02:39:33.854Z,15.62
2024-05-09T02:41:35.650Z,15.48
2024-05-09T02:43:37.392Z,15.41
2024-05-09T02:45:40.225Z,15.33
2024-05-09T02:47:42.408Z,15.28
2024-05-09T02:49:46.574Z,15.22
2024-05-09T02:51:48.451Z,15.38
2024-05-09T02:53:50.213Z,15.40
2024-05-09T02:55:51.910Z,15.29
2024-05-09T02:57:53.601Z,15.22
2024-05-09T02:59:55.280Z,15.37
2024-05-09T03:01:57.034Z,15.32
2024-05-09T03:03:58.932Z,15.39
2024-05-09T03:06:01.736Z,15.36
2024-05-09T03:08:03.698Z,15.38
2024-05-09T03:10:18.033Z,15.33
2024-05-09T03:12:24.175Z,15.35
2024-05-09T03:14:26.064Z,15.31
2024-05-09T03:16:27.943Z,15.26
2024-05-09T03:18:29.767Z,15.25
2024-05-09T03:20:34.851Z,15.25
2024-05-09T03:22:38.273Z,15.26
2024-05-09T03:24:39.984Z,15.32
2024-05-09T03:26:41.764Z,15.38
2024-05-09T03:28:43.821Z,15.38
2024-05-09T03:30:45.523Z,15.30
2024-05-09T03:32:47.296Z,15.29
2024-05-09T03:34:49.205Z,15.23
2024-05-09T03:36:50.964Z,15.38
2024-05-09T03:38:52.674Z,15.42
2024-05-09T03:40:54.469Z,15.48
2024-05-09T03:42:56.253Z,15.45
2024-05-09T03:44:58.018Z,15.41
2024-05-09T03:46:59.902Z,15.50
2024-05-09T03:49:01.829Z,15.36
2024-05-09T03:51:04.063Z,15.45
2024-05-09T03:53:05.852Z,15.46
2024-05-09T03:55:07.772Z,15.39
2024-05-09T03:57:09.427Z,15.44
2024-05-09T03:59:11.181Z,15.42
2024-05-09T04:01:12.956Z,15.22
2024-05-09T04:03:15.061Z,15.32
2024-05-09T04:05:17.025Z,15.30
2024-05-09T04:07:18.818Z,15.36
2024-05-09T04:09:20.522Z,15.37
2024-05-09T04:11:22.352Z,15.34
2024-05-09T04:13:24.150Z,15.35
2024-05-09T04:15:25.841Z,15.33
2024-05-09T04:17:28.299Z,15.22
2024-05-09T04:19:30.297Z,15.22
2024-05-09T04:21:32.090Z,15.31
2024-05-09T04:23:33.945Z,15.23
2024-05-09T04:25:35.921Z,15.20
2024-05-09T04:27:37.623Z,15.19
2024-05-09T04:29:39.941Z,15.27
2024-05-09T04:31:41.705Z,15.20
2024-05-09T04:33:43.753Z,15.19
2024-05-09T04:35:45.937Z,15.22
2024-05-09T04:37:47.674Z,15.12
2024-05-09T04:39:49.421Z,15.13
2024-05-09T04:41:51.243Z,15.15
2024-05-09T04:43:52.971Z,15.12
2024-05-09T04:45:54.689Z,15.07
2024-05-09T04:47:56.646Z,15.06
2024-05-09T04:50:00.879Z,14.94
2024-05-09T04:52:04.685Z,14.83
2024-05-09T04:54:08.469Z,14.88
2024-05-09T04:56:12.408Z,14.83
2024-05-09T04:58:14.323Z,14.70
2024-05-09T05:00:21.855Z,14.75
2024-05-09T05:02:32.925Z,14.71
2024-05-09T05:04:34.789Z,14.74
2024-05-09T05:06:36.575Z,14.81
2024-05-09T05:08:38.479Z,14.71
2024-05-09T05:10:40.813Z,14.79
2024-05-09T05:12:45.572Z,14.77
2024-05-09T05:14:47.355Z,14.73
2024-05-09T05:16:49.133Z,14.67
2024-05-09T05:18:53.256Z,14.83
2024-05-09T05:20:55.892Z,14.81
2024-05-09T05:22:57.833Z,14.84
2024-05-09T05:24:59.531Z,14.89
2024-05-09T05:27:01.311Z,14.88
2024-05-09T05:29:03.115Z,14.87
2024-05-09T05:31:05.018Z,14.74
2024-05-09T05:33:09.897Z,14.80
2024-05-09T05:35:11.768Z,14.81
2024-05-09T05:37:13.660Z,14.73
2024-05-09T05:39:15.421Z,14.77
2024-05-09T05:41:17.240Z,14.77
2024-05-09T05:43:19.341Z,14.73
2024-05-09T05:45:21.296Z,14.78
2024-05-09T05:47:25.004Z,14.86
2024-05-09T05:49:29.587Z,14.87
2024-05-09T05:51:31.499Z,14.97
2024-05-09T05:53:33.581Z,15.00
2024-05-09T05:55:35.876Z,15.11
2024-05-09T05:57:37.741Z,15.17
2024-05-09T05:59:39.469Z,15.20
2024-05-09T06:01:41.285Z,15.21
2024-05-09T06:03:43.360Z,15.25
2024-05-09T06:05:46.948Z,15.30
2024-05-09T06:07:49.035Z,15.31
2024-05-09T06:09:50.895Z,15.13
2024-05-09T06:11:52.772Z,15.17
2024-05-09T06:13:54.680Z,15.31
2024-05-09T06:15:56.657Z,15.31
2024-05-09T06:17:59.034Z,15.36
2024-05-09T06:20:01.148Z,15.38
2024-05-09T06:22:03.854Z,15.41
2024-05-09T06:24:06.735Z,15.48
2024-05-09T06:26:08.742Z,15.51
2024-05-09T06:28:13.967Z,15.55
2024-05-09T06:30:25.683Z,15.56
2024-05-09T06:32:32.797Z,15.60
2024-05-09T06:34:34.887Z,15.65
2024-05-09T06:36:39.024Z,15.67
2024-05-09T06:38:40.997Z,15.71
2024-05-09T06:40:44.121Z,15.73
2024-05-09T06:42:46.598Z,15.80
2024-05-09T06:44:48.482Z,15.84
2024-05-09T06:46:50.382Z,15.78
2024-05-09T06:48:53.045Z,15.79
2024-05-09T06:50:55.435Z,15.57
2024-05-09T06:52:57.400Z,15.72
2024-05-09T06:54:59.417Z,15.67
2024-05-09T06:57:01.368Z,15.71
2024-05-09T06:59:03.643Z,15.80
2024-05-09T07:01:05.710Z,15.69
2024-05-09T07:03:08.574Z,15.66
2024-05-09T07:05:10.738Z,15.58
2024-05-09T07:07:12.909Z,15.62
2024-05-09T07:09:14.758Z,15.70
2024-05-09T07:11:16.828Z,15.76
2024-05-09T07:13:18.954Z,15.81
2024-05-09T07:15:20.943Z,15.75
2024-05-09T07:17:23.054Z,15.66
2024-05-09T07:19:25.155Z,15.69
2024-05-09T07:21:27.057Z,15.71
2024-05-09T07:23:29.267Z,15.70
2024-05-09T07:25:31.481Z,15.71
2024-05-09T07:27:34.664Z,15.71
2024-05-09T07:29:38.679Z,15.70
2024-05-09T07:31:41.189Z,15.77
2024-05-09T07:33:43.536Z,15.84
2024-05-09T07:35:45.744Z,15.80
2024-05-09T07:37:48.422Z,15.81
2024-05-09T07:39:51.286Z,15.85
2024-05-09T07:41:54.128Z,15.92
2024-05-09T07:43:56.633Z,16.04
2024-05-09T07:46:23.059Z,16.12
2024-05-09T07:53:33.066Z,16.11
2024-05-09T07:54:55.861Z,16.19
2024-05-09T07:56:58.312Z,16.19
2024-05-09T07:59:00.716Z,16.14
2024-05-09T08:01:03.457Z,16.19
2024-05-09T08:03:06.171Z,16.26
2024-05-09T08:05:08.399Z,16.28
2024-05-09T08:07:10.704Z,16.29
2024-05-09T08:09:16.926Z,16.47
2024-05-09T08:11:24.207Z,16.51
2024-05-09T08:13:28.730Z,16.51
2024-05-09T08:15:31.241Z,16.59
2024-05-09T08:17:34.011Z,16.67
2024-05-09T08:19:37.941Z,16.68
2024-05-09T08:21:40.037Z,16.82
2024-05-09T08:23:42.323Z,16.83
2024-05-09T08:25:44.866Z,16.82
2024-05-09T08:27:47.046Z,16.93
2024-05-09T08:29:49.460Z,16.95
2024-05-09T08:31:56.198Z,17.03
2024-05-09T08:33:58.831Z,17.11
2024-05-09T08:36:01.195Z,17.18
2024-05-09T08:38:04.657Z,17.28
2024-05-09T08:40:11.178Z,17.40
2024-05-09T08:42:18.924Z,17.47
2024-05-09T08:44:21.678Z,17.54
2024-05-09T08:46:24.656Z,17.58
2024-05-09T08:48:27.078Z,17.55
2024-05-09T08:50:36.430Z,17.59
2024-05-09T08:52:41.574Z,17.63
2024-05-09T08:54:46.300Z,17.76
2024-05-09T08:56:48.617Z,17.89
2024-05-09T08:58:52.336Z,17.95
2024-05-09T09:00:55.221Z,17.93
2024-05-09T09:02:57.623Z,18.03
2024-05-09T09:05:05.782Z,18.11
2024-05-09T09:07:08.280Z,18.28
2024-05-09T09:09:10.650Z,18.33
2024-05-09T09:11:12.825Z,18.44
2024-05-09T09:13:15.768Z,18.41
2024-05-09T09:15:18.527Z,18.51
2024-05-09T09:17:20.885Z,18.56
2024-05-09T09:19:23.796Z,18.68
2024-05-09T09:21:26.084Z,18.77
2024-05-09T09:23:30.379Z,18.75
2024-05-09T09:25:33.050Z,18.90
2024-05-09T09:27:35.336Z,18.91
2024-05-09T09:29:39.730Z,18.98
2024-05-09T09:31:42.366Z,19.04
2024-05-09T09:33:45.544Z,19.23
2024-05-09T09:35:47.656Z,19.39
2024-05-09T09:37:50.919Z,19.48
2024-05-09T09:39:53.450Z,19.49
2024-05-09T09:41:56.790Z,19.60
2024-05-09T09:43:58.994Z,19.76
2024-05-09T09:46:02.322Z,19.73
2024-05-09T09:48:05.385Z,19.84
2024-05-09T09:50:14.193Z,19.92
2024-05-09T09:52:18.975Z,19.95
2024-05-09T09:54:24.092Z,20.02
2024-05-09T09:56:26.565Z,20.10
2024-05-09T09:58:29.648Z,20.23
2024-05-09T10:00:33.890Z,20.32
2024-05-09T10:02:36.227Z,20.43
2024-05-09T10:04:38.820Z,20.60
2024-05-09T10:06:43.201Z,20.75
2024-05-09T10:08:46.994Z,20.92
2024-05-09T10:10:49.234Z,21.00
2024-05-09T10:12:57.158Z,20.98
2024-05-09T10:14:59.346Z,21.18
2024-05-09T10:17:04.393Z,21.24
2024-05-09T10:19:06.662Z,21.36
2024-05-09T10:21:11.991Z,21.51
2024-05-09T10:23:17.144Z,21.50
2024-05-09T10:25:19.701Z,21.63
2024-05-09T10:27:25.043Z,21.71
2024-05-09T10:29:27.174Z,21.91
2024-05-09T10:31:29.843Z,21.87
2024-05-09T10:33:35.026Z,22.02
2024-05-09T10:35:37.174Z,22.13
2024-05-09T10:37:39.763Z,22.18
2024-05-09T10:39:42.274Z,22.30
2024-05-09T10:41:44.201Z,22.35
2024-05-09T10:43:47.571Z,22.50
2024-05-09T10:45:49.783Z,22.57
2024-05-09T10:47:52.243Z,22.66
2024-05-09T10:49:54.559Z,22.67
2024-05-09T10:51:56.541Z,22.83
2024-05-09T10:53:59.537Z,22.89
2024-05-09T10:56:01.996Z,22.88
2024-05-09T10:58:04.119Z,23.01
2024-05-09T11:00:10.174Z,23.09
2024-05-09T11:02:16.378Z,23.20
2024-05-09T11:04:21.196Z,23.29
2024-05-09T11:06:23.799Z,23.29
2024-05-09T11:08:26.083Z,23.36
2024-05-09T11:10:33.728Z,23.43
2024-05-09T11:12:36.965Z,23.60
2024-05-09T11:14:39.631Z,23.86
2024-05-09T11:16:41.888Z,23.96
2024-05-09T11:18:44.538Z,24.15
2024-05-09T11:20:46.997Z,24.24
2024-05-09T11:22:49.588Z,24.42
2024-05-09T11:24:53.309Z,24.46
2024-05-09T11:26:57.197Z,24.50
2024-05-09T11:28:59.403Z,24.48
2024-05-09T11:31:05.511Z,24.70
2024-05-09T11:33:11.316Z,24.88
2024-05-09T11:35:14.127Z,24.98
2024-05-09T11:37:16.235Z,25.14
2024-05-09T11:39:18.873Z,25.21
2024-05-09T11:41:20.921Z,25.34
2024-05-09T11:43:23.019Z,25.29
2024-05-09T11:45:25.857Z,25.29
2024-05-09T11:47:28.014Z,25.51
2024-05-09T11:49:30.322Z,25.56
2024-05-09T11:51:32.664Z,25.60
2024-05-09T11:55:38.524Z,25.62
2024-05-09T11:57:40.865Z,25.53
2024-05-09T11:59:43.769Z,25.69
2024-05-09T12:01:46.641Z,25.79
2024-05-09T12:03:50.257Z,25.93
2024-05-09T12:05:55.821Z,26.05
2024-05-09T12:07:58.376Z,26.11
2024-05-09T12:10:00.829Z,26.05
2024-05-09T12:12:03.507Z,26.01
2024-05-09T12:14:05.774Z,26.17
2024-05-09T12:16:09.082Z,26.28
2024-05-09T12:18:11.450Z,26.29
2024-05-09T12:20:21.446Z,26.16
2024-05-09T12:22:30.748Z,26.15
2024-05-09T12:24:32.817Z,26.07
2024-05-09T12:26:35.034Z,26.12
2024-05-09T12:28:37.377Z,26.13
2024-05-09T12:30:41.037Z,26.30
2024-05-09T12:32:46.312Z,26.43
2024-05-09T12:34:49.004Z,26.30
2024-05-09T12:36:51.174Z,26.48
2024-05-09T12:38:54.530Z,26.41
2024-05-09T12:40:57.727Z,26.50
2024-05-09T12:42:59.918Z,26.47
2024-05-09T12:45:01.901Z,26.48
2024-05-09T12:47:06.178Z,26.41
2024-05-09T12:49:10.918Z,26.50
2024-05-09T12:51:12.992Z,26.62
2024-05-09T12:53:16.244Z,26.61
2024-05-09T12:55:19.851Z,26.65
2024-05-09T12:57:22.394Z,26.45
2024-05-09T12:59:24.477Z,26.36
2024-05-09T13:01:26.910Z,26.21
2024-05-09T13:03:29.266Z,26.21
2024-05-09T13:05:32.508Z,26.24
2024-05-09T13:07:34.548Z,26.16
2024-05-09T13:09:36.700Z,26.32
2024-05-09T13:11:43.347Z,26.47
2024-05-09T13:13:45.338Z,26.70
2024-05-09T13:15:47.794Z,26.86
2024-05-09T13:17:50.342Z,27.09
2024-05-09T13:19:52.509Z,27.30
2024-05-09T13:21:54.953Z,27.50
2024-05-09T13:23:59.253Z,27.72
2024-05-09T13:26:02.682Z,27.92
2024-05-09T13:28:05.252Z,27.99
2024-05-09T13:30:11.902Z,27.97
2024-05-09T13:32:17.105Z,27.86
2024-05-09T13:34:19.530Z,27.72
2024-05-09T13:36:22.500Z,27.59
2024-05-09T13:38:24.921Z,27.55
2024-05-09T13:40:33.005Z,27.48
2024-05-09T13:42:37.952Z,27.43
2024-05-09T13:44:40.246Z,27.39
2024-05-09T13:46:44.766Z,27.36
2024-05-09T13:48:46.995Z,27.42
2024-05-09T13:50:49.342Z,27.27
2024-05-09T13:52:51.773Z,27.22
2024-05-09T13:54:54.000Z,27.27
2024-05-09T13:56:58.587Z,27.42
2024-05-09T13:59:00.781Z,27.72
2024-05-09T14:01:03.175Z,27.81
2024-05-09T14:03:05.661Z,27.92
2024-05-09T14:05:08.265Z,28.18
2024-05-09T14:07:11.635Z,28.41
2024-05-09T14:09:14.156Z,28.62
2024-05-09T14:11:16.217Z,28.74
2024-05-09T14:13:18.496Z,28.85
2024-05-09T14:15:20.659Z,28.95
2024-05-09T14:17:22.969Z,29.18
2024-05-09T14:19:25.579Z,29.29
2024-05-09T14:21:27.985Z,29.37
2024-05-09T14:23:32.437Z,29.57
2024-05-09T14:25:39.891Z,29.81
2024-05-09T14:27:44.009Z,29.89
2024-05-09T14:29:46.276Z,30.12
2024-05-09T14:31:48.447Z,30.03
2024-05-09T14:33:51.052Z,30.09
2024-05-09T14:35:53.802Z,30.08
2024-05-09T14:37:56.015Z,30.11
2024-05-09T14:39:58.749Z,30.02
2024-05-09T14:42:01.078Z,30.06
2024-05-09T14:44:03.136Z,29.93
2024-05-09T14:46:05.478Z,30.26
2024-05-09T14:48:08.032Z,30.33
2024-05-09T14:50:16.800Z,30.48
2024-05-09T14:52:25.839Z,30.73
2024-05-09T14:54:27.862Z,30.91
2024-05-09T14:56:33.273Z,30.99
2024-05-09T14:58:36.033Z,31.13
2024-05-09T15:00:46.383Z,31.11
2024-05-09T15:02:52.275Z,31.16
2024-05-09T15:04:54.889Z,31.16
2024-05-09T15:06:57.418Z,31.27
2024-05-09T15:09:00.146Z,31.42
2024-05-09T15:11:02.702Z,31.27
2024-05-09T15:13:05.838Z,31.17
2024-05-09T15:15:09.418Z,31.17
2024-05-09T15:17:11.584Z,31.44
2024-05-09T15:19:14.267Z,31.48
2024-05-09T15:21:16.701Z,31.58
2024-05-09T15:23:19.059Z,31.69
2024-05-09T15:25:22.386Z,31.84
2024-05-09T15:27:24.697Z,31.53
2024-05-09T15:29:26.839Z,31.40
2024-05-09T15:31:29.909Z,31.36
2024-05-09T15:33:33.030Z,31.27
2024-05-09T15:37:37.595Z,31.37
2024-05-09T15:39:39.906Z,31.16
2024-05-09T15:41:42.129Z,30.96
2024-05-09T15:43:44.602Z,30.66
2024-05-09T15:45:47.490Z,30.47
2024-05-09T15:47:50.055Z,30.13
2024-05-09T15:49:52.530Z,29.87
2024-05-09T15:51:55.086Z,29.64
2024-05-09T15:53:57.259Z,29.49
2024-05-09T15:55:59.661Z,29.52
2024-05-09T15:58:02.916Z,29.45
2024-05-09T16:00:09.830Z,29.36
2024-05-09T16:02:14.575Z,29.10
2024-05-09T16:04:17.122Z,28.98
2024-05-09T16:06:19.526Z,28.85
2024-05-09T16:08:23.079Z,28.53
2024-05-09T16:10:32.152Z,28.38
2024-05-09T16:12:36.279Z,28.00
2024-05-09T16:14:38.650Z,27.79
2024-05-09T16:16:41.237Z,27.74
2024-05-09T16:18:43.573Z,27.55
2024-05-09T16:20:49.412Z,27.52
2024-05-09T16:22:53.478Z,27.38
2024-05-09T16:24:56.679Z,27.35
2024-05-09T16:26:59.154Z,27.20
2024-05-09T16:29:01.539Z,27.09
2024-05-09T16:33:12.461Z,26.83
2024-05-09T16:35:16.925Z,26.81
2024-05-09T16:37:19.412Z,26.70
2024-05-09T16:39:21.587Z,26.58
2024-05-09T16:41:23.792Z,26.56
2024-05-09T16:43:26.354Z,26.51
2024-05-09T16:45:28.870Z,26.49
2024-05-09T16:47:31.719Z,26.44
2024-05-09T16:49:34.740Z,26.39
2024-05-09T16:51:38.238Z,26.33
2024-05-09T16:53:40.949Z,26.24
2024-05-09T16:55:43.092Z,26.23
2024-05-09T16:57:45.392Z,26.18
2024-05-09T16:59:48.110Z,26.15
2024-05-09T17:01:52.551Z,26.09
2024-05-09T17:03:55.006Z,26.04
2024-05-09T17:05:58.132Z,25.94
2024-05-09T17:08:01.442Z,25.93
2024-05-09T17:10:08.245Z,25.86
2024-05-09T17:12:10.940Z,25.77
2024-05-09T17:14:13.731Z,25.78
2024-05-09T17:16:19.225Z,25.75
2024-05-09T17:18:22.408Z,25.72
2024-05-09T17:20:32.201Z,25.68
2024-05-09T17:22:37.857Z,25.67
2024-05-09T17:24:42.148Z,25.61
2024-05-09T17:26:44.786Z,25.57
2024-05-09T17:28:48.053Z,25.57
2024-05-09T17:30:50.467Z,25.54
2024-05-09T17:32:53.440Z,25.51
2024-05-09T17:34:56.039Z,25.47
2024-05-09T17:36:58.784Z,25.51
2024-05-09T17:39:00.986Z,25.53
2024-05-09T17:41:03.319Z,25.48
2024-05-09T17:43:07.675Z,25.48
2024-05-09T17:45:15.642Z,25.43
2024-05-09T17:47:17.795Z,25.41
2024-05-09T17:49:20.182Z,25.38
2024-05-09T17:51:22.988Z,25.39
2024-05-09T17:53:41.131Z,25.40
2024-05-09T17:55:43.590Z,25.36
2024-05-09T17:57:46.007Z,25.35
2024-05-09T17:59:50.542Z,25.36
2024-05-09T18:01:52.816Z,25.40
2024-05-09T18:03:55.534Z,25.36
2024-05-09T18:05:57.838Z,25.37
2024-05-09T18:08:00.257Z,25.37
2024-05-09T18:10:06.081Z,25.36
2024-05-09T18:12:09.859Z,25.41
2024-05-09T18:14:12.029Z,25.42
2024-05-09T18:16:15.028Z,25.46
2024-05-09T18:18:18.109Z,25.49
2024-05-09T18:20:31.916Z,25.52
2024-05-09T18:22:42.169Z,25.50
2024-05-09T18:24:44.495Z,25.52
2024-05-09T18:26:46.435Z,25.57
2024-05-09T18:28:48.577Z,25.59
2024-05-09T18:30:50.728Z,25.57
2024-05-09T18:32:53.035Z,25.57
2024-05-09T18:34:55.205Z,25.55
2024-05-09T18:36:57.514Z,25.53
2024-05-09T18:39:01.726Z,25.49
2024-05-09T18:41:04.506Z,25.46
2024-05-09T18:43:08.591Z,25.45
2024-05-09T18:45:11.339Z,25.43
2024-05-09T18:47:15.350Z,25.42
2024-05-09T18:49:19.192Z,25.39
2024-05-09T18:51:21.488Z,25.34
2024-05-09T18:53:23.553Z,25.33
2024-05-09T18:55:25.608Z,25.31
2024-05-09T18:57:27.454Z,25.24
2024-05-09T18:59:31.571Z,25.25
2024-05-09T19:01:33.827Z,25.20
2024-05-09T19:03:36.376Z,25.04
2024-05-09T19:05:38.930Z,25.01
2024-05-09T19:07:43.665Z,24.98
2024-05-09T19:09:45.769Z,24.87
2024-05-09T19:11:47.597Z,24.77
2024-05-09T19:13:49.742Z,24.74
2024-05-09T19:15:51.826Z,24.68
2024-05-09T19:17:53.803Z,24.58
2024-05-09T19:19:58.182Z,24.44
2024-05-09T19:22:00.150Z,24.37
2024-05-09T19:24:02.165Z,24.21
2024-05-09T19:26:04.407Z,24.10
2024-05-09T19:28:06.704Z,24.02
2024-05-09T19:30:17.447Z,23.98
2024-05-09T19:32:26.479Z,23.83
2024-05-09T19:34:28.506Z,23.69
2024-05-09T19:36:30.579Z,23.56
2024-05-09T19:38:32.560Z,23.44
2024-05-09T19:40:35.649Z,23.31
2024-05-09T19:42:37.991Z,23.25
2024-05-09T19:44:39.982Z,23.27
2024-05-09T19:46:43.804Z,23.11
2024-05-09T19:48:46.047Z,23.01
2024-05-09T19:50:51.579Z,22.95
2024-05-09T19:52:55.114Z,22.85
2024-05-09T19:54:57.053Z,22.75
2024-05-09T19:56:59.099Z,22.66
2024-05-09T19:59:01.019Z,22.55
2024-05-09T20:01:03.308Z,22.58
2024-05-09T20:03:05.680Z,22.44
2024-05-09T20:05:08.029Z,22.50
2024-05-09T20:07:10.301Z,22.42
2024-05-09T20:09:12.196Z,22.36
2024-05-09T20:11:14.844Z,22.30
2024-05-09T20:13:16.812Z,22.34
2024-05-09T20:15:18.764Z,22.25
2024-05-09T20:17:20.582Z,22.16
2024-05-09T20:19:22.547Z,22.21
2024-05-09T20:21:24.879Z,22.18
2024-05-09T20:23:27.317Z,22.17
2024-05-09T20:25:29.123Z,22.11
2024-05-09T20:27:31.247Z,22.04
2024-05-09T20:29:33.282Z,21.99
2024-05-09T20:31:35.120Z,21.95
2024-05-09T20:33:38.049Z,21.95
2024-05-09T20:35:40.130Z,21.87
2024-05-09T20:37:41.978Z,21.76
2024-05-09T20:39:43.830Z,21.84
2024-05-09T20:41:45.721Z,21.74
2024-05-09T20:43:47.727Z,21.69
2024-05-09T20:45:49.778Z,21.67
2024-05-09T20:47:51.824Z,21.58
2024-05-09T20:49:53.797Z,21.59
2024-05-09T20:51:55.786Z,21.49
2024-05-09T20:53:57.687Z,21.58
2024-05-09T20:55:59.448Z,21.53
2024-05-09T20:58:01.408Z,21.64
2024-05-09T21:00:05.764Z,21.60
2024-05-09T21:02:11.431Z,21.65
2024-05-09T21:04:13.929Z,21.50
2024-05-09T21:06:16.442Z,21.53
2024-05-09T21:08:18.313Z,21.54
2024-05-09T21:10:22.898Z,21.43
2024-05-09T21:12:25.344Z,21.43
2024-05-09T21:14:27.214Z,21.36
2024-05-09T21:16:29.130Z,21.29
2024-05-09T21:18:33.313Z,21.22
2024-05-09T21:20:35.525Z,21.15
2024-05-09T21:22:38.058Z,21.16
2024-05-09T21:24:39.892Z,21.21
2024-05-09T21:26:41.763Z,21.26
2024-05-09T21:28:43.603Z,21.28
2024-05-09T21:30:45.562Z,21.28
2024-05-09T21:32:47.675Z,21.17
2024-05-09T21:34:49.607Z,21.16
2024-05-09T21:36:51.574Z,21.06
2024-05-09T21:38:53.472Z,21.09
2024-05-09T21:40:55.608Z,21.07
2024-05-09T21:42:57.497Z,20.95
2024-05-09T21:44:59.320Z,20.93
2024-05-09T21:47:01.246Z,20.95
2024-05-09T21:49:05.604Z,21.00
2024-05-09T21:51:13.466Z,20.92
2024-05-09T21:53:15.474Z,21.00
2024-05-09T21:55:17.252Z,20.92
2024-05-09T21:57:19.127Z,21.01
2024-05-09T21:59:21.124Z,20.88
2024-05-09T22:01:25.061Z,20.83
2024-05-09T22:03:29.807Z,20.78
2024-05-09T22:05:31.905Z,20.89
2024-05-09T22:07:33.898Z,20.78
2024-05-09T22:09:35.894Z,20.83
2024-05-09T22:11:37.836Z,20.75
2024-05-09T22:13:39.702Z,20.69
2024-05-09T22:15:42.062Z,20.73
2024-05-09T22:17:44.167Z,20.70
2024-05-09T22:19:46.398Z,20.70
2024-05-09T22:21:49.324Z,20.62
2024-05-09T22:23:52.627Z,20.64
2024-05-09T22:25:54.453Z,20.61
2024-05-09T22:27:56.227Z,20.59
2024-05-09T22:29:58.049Z,20.42
2024-05-09T22:31:59.950Z,20.51
2024-05-09T22:34:01.823Z,20.49
2024-05-09T22:36:03.764Z,20.55
2024-05-09T22:38:05.888Z,20.55
2024-05-09T22:40:10.705Z,20.52
2024-05-09T22:42:14.276Z,20.50
2024-05-09T22:44:16.119Z,20.50
2024-05-09T22:46:17.939Z,20.51
2024-05-09T22:48:20.160Z,20.48
2024-05-09T22:50:26.834Z,20.41
2024-05-09T22:52:32.567Z,20.45
2024-05-09T22:54:34.385Z,20.38
2024-05-09T22:56:36.151Z,20.26
2024-05-09T22:58:37.895Z,20.23
2024-05-09T23:00:40.116Z,20.25
2024-05-09T23:02:42.120Z,20.29
2024-05-09T23:04:44.084Z,20.28
2024-05-09T23:06:45.862Z,20.30
2024-05-09T23:08:49.846Z,20.29
2024-05-09T23:10:51.633Z,20.28
2024-05-09T23:12:53.480Z,20.23
2024-05-09T23:14:57.645Z,20.24
2024-05-09T23:16:59.446Z,20.18
2024-05-09T23:19:01.333Z,20.19
2024-05-09T23:21:03.338Z,20.10
2024-05-09T23:23:05.666Z,20.05
2024-05-09T23:25:07.763Z,19.93
2024-05-09T23:27:09.593Z,19.89
2024-05-09T23:29:11.361Z,19.80
2024-05-09T23:31:13.250Z,19.76
2024-05-09T23:33:15.171Z,19.75
2024-05-09T23:35:16.961Z,19.72
2024-05-09T23:37:18.952Z,19.67
2024-05-09T23:39:20.797Z,19.79
2024-05-09T23:41:24.764Z,19.64
2024-05-09T23:43:26.641Z,19.63
2024-05-09T23:45:28.491Z,19.62
2024-05-09T23:47:30.397Z,19.70
2024-05-09T23:49:32.369Z,19.76
2024-05-09T23:51:34.558Z,19.75
2024-05-09T23:53:36.337Z,19.79
2024-05-09T23:55:38.364Z,19.80
2024-05-09T23:57:41.269Z,19.80
2024-05-09T23:59:43.039Z,19.80
